.
WxDataArchive / Data Records for 2011-05-13
2011-05-12 May 2011 2011-05-14

Data Records for Friday, 13 May 2011

Time	Temp	Chill	HIndex	Humid	Dewpt	 Wind 	HiWind	WindDir	Rain 	Barom 
-----	----	-----	------	-----	-----	------	------	-------	-----	----- 
00:00	70.8	70.8	70.8	68	59.7	0	0	---	0.00	29.775 
00:05	70.9	70.9	70.9	68	59.8	0	0	---	0.00	29.775 
00:10	70.9	70.9	70.9	68	59.8	0	0	---	0.00	29.775 
00:15	71.1	71.1	71.1	68	60.0	0	0	---	0.00	29.774 
00:20	71.3	71.3	71.3	68	60.2	0	0	---	0.00	29.774 
00:25	71.3	71.3	71.3	68	60.2	0	0	---	0.00	29.774 
00:30	71.5	71.5	71.5	68	60.4	0	1	270	0.00	29.769 
00:35	71.8	71.8	71.8	67	60.2	0	1	270	0.00	29.769 
00:40	72.0	72.0	72.0	67	60.4	0	1	270	0.00	29.769 
00:45	72.1	72.1	72.1	66	60.1	0	0	---	0.00	29.767 
00:50	72.0	72.0	72.0	66	60.0	0	0	---	0.00	29.767 
00:55	72.0	72.0	72.0	66	60.0	0	1	270	0.00	29.767 
01:00	72.0	72.0	72.0	66	60.0	0	0	---	0.00	29.767 
01:05	71.8	71.8	71.8	66	59.8	0	0	---	0.00	29.767 
01:10	71.6	71.6	71.6	66	59.6	0	0	---	0.00	29.767 
01:15	71.5	71.5	71.5	67	60.0	0	0	---	0.00	29.762 
01:20	71.3	71.3	71.3	67	59.8	0	1	270	0.00	29.762 
01:25	71.1	71.1	71.1	67	59.6	0	0	---	0.00	29.762 
01:30	71.1	71.1	71.1	67	59.6	0	0	---	0.00	29.756 
01:35	71.1	71.1	71.1	67	59.6	0	0	---	0.00	29.756 
01:40	71.1	71.1	71.1	67	59.6	0	0	---	0.00	29.756 
01:45	70.9	70.9	70.9	67	59.4	0	0	---	0.00	29.756 
01:50	70.8	70.8	70.8	68	59.7	0	0	---	0.00	29.756 
01:55	70.4	70.4	70.4	68	59.3	0	0	---	0.00	29.756 
02:00	70.3	70.3	70.3	69	59.6	0	0	---	0.00	29.756 
02:05	70.1	70.1	70.1	69	59.4	0	0	---	0.00	29.756 
02:10	69.9	69.9	69.9	70	59.7	0	0	---	0.00	29.756 
02:15	69.6	69.6	69.6	70	59.4	0	0	---	0.00	29.752 
02:20	69.4	69.4	69.4	71	59.6	0	0	---	0.00	29.752 
02:25	69.3	69.3	69.3	72	59.9	0	0	---	0.00	29.752 
02:30	69.1	69.1	69.1	73	60.1	0	0	---	0.00	29.751 
02:35	68.9	68.9	68.9	73	59.9	0	0	---	0.00	29.751 
02:40	68.8	68.8	68.8	73	59.8	0	0	---	0.00	29.751 
02:45	68.6	68.6	68.6	73	59.6	0	0	---	0.00	29.752 
02:50	68.6	68.6	68.6	74	60.0	0	0	---	0.00	29.752 
02:55	68.4	68.4	68.4	74	59.8	0	0	---	0.00	29.752 
03:00	68.4	68.4	68.4	74	59.8	0	0	---	0.00	29.754 
03:05	68.6	68.6	68.6	73	59.6	0	0	---	0.00	29.754 
03:10	68.6	68.6	68.6	73	59.6	0	0	---	0.00	29.754 
03:15	68.6	68.6	68.6	73	59.6	0	0	---	0.00	29.747 
03:20	68.6	68.6	68.6	73	59.6	0	0	---	0.00	29.747 
03:25	68.6	68.6	68.6	73	59.6	0	0	---	0.00	29.747 
03:30	68.8	68.8	68.8	73	59.8	0	0	---	0.00	29.738 
03:35	68.8	68.8	68.8	73	59.8	0	0	---	0.00	29.738 
03:40	68.6	68.6	68.6	73	59.6	0	0	---	0.00	29.738 
03:45	68.6	68.6	68.6	73	59.6	0	0	---	0.00	29.735 
03:50	68.4	68.4	68.4	73	59.4	0	0	---	0.00	29.735 
03:55	68.4	68.4	68.4	74	59.8	0	0	---	0.00	29.735 
04:00	68.3	68.3	68.3	74	59.7	0	0	---	0.00	29.733 
04:05	68.1	68.1	68.1	74	59.5	0	0	---	0.00	29.733 
04:10	67.9	67.9	67.9	75	59.7	0	0	---	0.00	29.733 
04:15	67.8	67.8	67.8	76	59.9	0	0	---	0.00	29.734 
04:20	67.6	67.6	67.6	76	59.8	0	0	---	0.00	29.734 
04:25	67.4	67.4	67.4	76	59.6	0	0	---	0.00	29.734 
04:30	67.3	67.3	67.3	77	59.8	0	0	---	0.00	29.729 
04:35	67.3	67.3	67.3	77	59.8	0	0	---	0.00	29.729 
04:40	67.1	67.1	67.1	77	59.6	0	0	---	0.00	29.729 
04:45	66.9	66.9	66.9	78	59.8	0	0	---	0.00	29.726 
04:50	66.9	66.9	66.9	78	59.8	0	0	---	0.00	29.726 
04:55	66.8	66.8	66.8	79	60.1	0	0	---	0.00	29.726 
05:00	66.6	66.6	66.6	79	59.9	0	0	---	0.00	29.725 
05:05	66.6	66.6	66.6	79	59.9	0	0	---	0.00	29.725 
05:10	66.4	66.4	66.4	80	60.0	0	0	---	0.00	29.725 
05:15	66.3	66.3	66.3	81	60.3	0	0	---	0.00	29.727 
05:20	66.1	66.1	66.1	81	60.1	0	0	---	0.00	29.727 
05:25	66.1	66.1	66.1	81	60.1	0	0	---	0.00	29.727 
05:30	66.0	66.0	66.0	81	60.0	0	0	---	0.00	29.726 
05:35	66.0	66.0	66.0	82	60.3	0	0	---	0.00	29.726 
05:40	66.0	66.0	66.0	82	60.3	0	0	---	0.00	29.726 
05:45	65.8	65.8	65.8	82	60.1	0	0	---	0.00	29.724 
05:50	65.8	65.8	65.8	82	60.1	0	0	---	0.00	29.724 
05:55	65.8	65.8	65.8	82	60.1	0	0	---	0.00	29.724 
06:00	65.8	65.8	65.8	83	60.5	0	0	---	0.00	29.722 
06:05	65.8	65.8	65.8	83	60.5	0	0	---	0.00	29.722 
06:10	65.6	65.6	65.6	83	60.3	0	0	---	0.00	29.722 
06:15	65.6	65.6	65.6	83	60.3	0	0	---	0.00	29.723 
06:20	65.6	65.6	65.6	83	60.3	0	0	---	0.00	29.723 
06:25	65.6	65.6	65.6	83	60.3	0	0	---	0.00	29.723 
06:30	65.6	65.6	65.6	83	60.3	0	0	---	0.00	29.720 
06:35	65.6	65.6	65.6	83	60.3	0	0	---	0.00	29.720 
06:40	65.6	65.6	65.6	83	60.3	0	0	---	0.00	29.720 
06:45	65.6	65.6	65.6	83	60.3	0	0	---	0.00	29.723 
06:50	65.8	65.8	65.8	82	60.1	0	0	---	0.00	29.723 
06:55	66.0	66.0	66.0	82	60.3	0	0	---	0.00	29.723 
07:00	66.1	66.1	66.1	81	60.1	0	0	---	0.00	29.726 
07:05	66.3	66.3	66.3	81	60.3	0	0	---	0.00	29.726 
07:10	66.3	66.3	66.3	81	60.3	0	0	---	0.00	29.726 
07:15	66.3	66.3	66.3	81	60.3	0	0	---	0.00	29.727 
07:20	66.4	66.4	66.4	80	60.0	0	0	---	0.00	29.727 
07:25	66.4	66.4	66.4	80	60.0	0	0	---	0.00	29.727 
07:30	66.6	66.6	66.6	80	60.2	0	0	---	0.00	29.726 
07:35	66.8	66.8	66.8	80	60.4	0	0	---	0.00	29.726 
07:40	66.9	66.9	66.9	81	60.9	0	0	---	0.00	29.726 
07:45	67.1	67.1	67.1	80	60.7	0	0	---	0.00	29.726 
07:50	67.3	67.3	67.3	79	60.6	0	0	---	0.00	29.726 
07:55	67.4	67.4	67.4	79	60.7	0	0	---	0.00	29.726 
08:00	67.4	67.4	67.4	79	60.7	0	0	---	0.00	29.725 
08:05	67.4	67.4	67.4	79	60.7	0	0	---	0.00	29.725 
08:10	67.4	67.4	67.4	79	60.7	0	0	---	0.00	29.725 
08:15	67.4	67.4	67.4	79	60.7	0	0	---	0.00	29.728 
08:20	67.4	67.4	67.4	79	60.7	0	0	---	0.00	29.728 
08:25	67.4	67.4	67.4	79	60.7	0	0	---	0.00	29.728 
08:30	67.4	67.4	67.4	79	60.7	0	2	270	0.00	29.731 
08:35	67.6	67.6	67.6	79	60.8	0	1	270	0.00	29.731 
08:40	67.9	67.9	67.9	79	61.1	0	3	270	0.00	29.731 
08:45	68.1	68.1	68.1	78	61.0	0	3	270	0.00	29.731 
08:50	68.4	68.4	68.4	78	61.3	0	1	270	0.00	29.731 
08:55	69.1	69.1	69.1	77	61.6	0	1	270	0.00	29.731 
09:00	69.9	69.9	69.9	76	62.0	0	0	---	0.00	29.730 
09:05	70.6	70.6	70.6	73	61.5	0	1	270	0.00	29.730 
09:10	71.3	71.3	71.3	73	62.2	0	0	---	0.00	29.730 
09:15	71.8	71.8	71.8	70	61.5	0	0	---	0.00	29.731 
09:20	72.7	72.7	72.7	69	61.9	0	1	270	0.00	29.731 
09:25	73.5	73.5	73.5	65	61.0	0	1	270	0.00	29.731 
09:30	74.2	74.2	74.2	64	61.2	0	1	270	0.00	29.727 
09:35	75.1	75.1	77.3	62	61.2	0	2	270	0.00	29.727 
09:40	75.6	75.6	77.6	63	62.1	0	1	270	0.00	29.727 
09:45	76.0	76.0	78.0	59	60.6	0	1	270	0.00	29.722 
09:50	75.6	75.6	77.8	59	60.2	0	1	270	0.00	29.722 
09:55	75.6	75.6	77.7	61	61.2	0	1	270	0.00	29.722 
10:00	75.4	75.4	77.6	60	60.5	0	1	270	0.00	29.717 
10:05	75.8	75.8	77.9	60	60.9	0	0	---	0.00	29.717 
10:10	76.3	76.3	78.3	57	59.9	0	1	270	0.00	29.717 
10:15	77.0	77.0	78.7	57	60.6	0	1	270	0.00	29.713 
10:20	77.2	77.2	78.9	57	60.8	0	2	270	0.00	29.713 
10:25	77.7	77.7	79.3	58	61.7	0	1	270	0.00	29.713 
10:30	78.3	78.3	79.9	59	62.8	0	2	270	0.00	29.713 
10:35	78.1	78.1	79.5	55	60.6	1	3	315	0.00	29.713 
10:40	77.9	77.9	79.5	57	61.4	1	4	292	0.00	29.713 
10:45	77.9	77.9	79.4	56	60.9	1	4	248	0.00	29.710 
10:50	78.5	78.5	79.9	56	61.5	0	2	248	0.00	29.710 
10:55	78.5	78.5	79.9	55	61.0	0	3	248	0.00	29.710 
11:00	79.0	79.0	80.5	57	62.4	1	3	248	0.00	29.705 
11:05	79.6	79.6	81.1	57	63.0	1	2	248	0.00	29.705 
11:10	79.6	79.6	80.9	55	62.0	0	2	270	0.00	29.705 
11:15	79.6	79.6	80.8	54	61.5	0	1	270	0.00	29.699 
11:20	80.1	80.1	81.4	55	62.4	0	0	---	0.00	29.699 
11:25	80.7	80.7	82.0	55	63.0	0	1	270	0.00	29.699 
11:30	80.7	80.7	81.9	54	62.5	0	3	270	0.00	29.702 
11:35	80.3	80.3	81.5	54	62.1	1	3	248	0.00	29.702 
11:40	80.3	80.3	81.7	56	63.1	1	3	270	0.00	29.702 
11:45	80.1	80.1	81.5	56	63.0	0	2	270	0.00	29.696 
11:50	80.7	80.7	82.4	58	64.5	0	0	---	0.00	29.696 
11:55	81.4	81.4	82.8	55	63.7	0	2	270	0.00	29.696 
12:00	81.4	81.4	82.8	55	63.7	1	3	270	0.00	29.686 
12:05	81.6	81.6	82.8	53	62.8	1	4	45	0.00	29.686 
12:10	81.6	81.6	83.1	55	63.8	1	3	112	0.00	29.686 
12:15	82.0	82.0	83.1	52	62.6	0	2	112	0.00	29.677 
12:20	82.2	82.2	83.5	53	63.3	1	3	112	0.00	29.677 
12:25	82.4	82.4	83.2	50	61.9	1	3	112	0.00	29.677 
12:30	82.4	82.4	83.4	51	62.4	0	2	112	0.00	29.676 
12:35	82.4	82.4	83.0	49	61.3	0	3	112	0.00	29.676 
12:40	82.4	82.4	82.6	46	59.5	1	3	112	0.00	29.676 
12:45	82.2	82.2	82.3	45	58.7	0	1	338	0.00	29.675 
12:50	82.4	82.4	82.6	46	59.5	0	1	338	0.00	29.675 
12:55	82.8	82.8	83.8	51	62.8	0	4	90	0.00	29.675 
13:00	83.4	83.4	83.7	46	60.4	1	4	270	0.00	29.670 
13:05	83.2	83.2	83.8	48	61.4	2	4	270	0.00	29.670 
13:10	82.8	82.8	82.9	45	59.3	0	1	90	0.00	29.670 
13:15	82.8	82.8	82.7	44	58.6	0	1	338	0.00	29.663 
13:20	83.2	83.2	83.4	46	60.2	0	1	338	0.00	29.663 
13:25	83.2	83.2	83.1	44	59.0	1	3	338	0.00	29.663 
13:30	83.4	83.4	84.2	49	62.2	0	2	315	0.00	29.656 
13:35	83.4	83.4	83.3	44	59.2	1	2	315	0.00	29.656 
13:40	83.2	83.2	83.6	47	60.8	0	2	315	0.00	29.656 
13:45	83.0	83.0	83.2	46	60.1	0	1	315	0.00	29.647 
13:50	83.0	83.0	83.7	49	61.8	0	1	315	0.00	29.647 
13:55	83.0	83.0	82.9	44	58.8	0	2	315	0.00	29.647 
14:00	82.8	82.8	83.0	46	59.9	0	2	315	0.00	29.640 
14:05	83.2	83.2	83.4	46	60.2	0	2	315	0.00	29.640 
14:10	83.4	83.4	83.5	45	59.8	1	2	292	0.00	29.640 
14:15	83.4	83.4	83.2	43	58.5	0	2	270	0.00	29.638 
14:20	83.2	83.2	82.8	42	57.7	1	2	270	0.00	29.638 
14:25	82.8	82.8	82.9	45	59.3	0	1	270	0.00	29.638 
14:30	82.8	82.8	82.9	45	59.3	0	3	270	0.00	29.631 
14:35	82.8	82.8	82.7	44	58.6	1	3	270	0.00	29.631 
14:40	82.8	82.8	82.9	45	59.3	1	2	270	0.00	29.631 
14:45	82.8	82.8	82.9	45	59.3	0	1	270	0.00	29.624 
14:50	82.8	82.8	82.7	44	58.6	1	3	270	0.00	29.624 
14:55	82.8	82.8	82.7	44	58.6	1	2	270	0.00	29.624 
15:00	82.8	82.8	82.6	43	58.0	1	3	270	0.00	29.620 
15:05	82.8	82.8	82.6	43	58.0	1	4	270	0.00	29.620 
15:10	83.4	83.4	84.0	48	61.6	1	4	270	0.00	29.620 
15:15	83.6	83.6	83.7	45	60.0	1	3	22	0.00	29.615 
15:20	83.0	83.0	83.2	46	60.1	1	4	248	0.00	29.615 
15:25	82.4	82.4	82.7	47	60.1	0	3	270	0.00	29.615 
15:30	82.0	82.0	82.5	48	60.3	0	3	90	0.00	29.613 
15:35	81.6	81.6	81.9	47	59.4	1	5	90	0.00	29.613 
15:40	81.6	81.6	81.9	47	59.4	1	3	112	0.00	29.613 
15:45	81.6	81.6	82.3	50	61.1	0	1	112	0.00	29.614 
15:50	81.8	81.8	82.3	48	60.2	0	2	112	0.00	29.614 
15:55	81.8	81.8	82.3	48	60.2	1	4	90	0.00	29.614 
16:00	81.4	81.4	82.1	50	60.9	1	3	270	0.00	29.600 
16:05	81.4	81.4	81.9	48	59.8	0	3	270	0.00	29.600 
16:10	81.6	81.6	82.1	48	60.0	0	3	270	0.00	29.600 
16:15	82.0	82.0	82.2	46	59.1	1	2	270	0.00	29.598 
16:20	82.6	82.6	82.8	46	59.7	2	5	270	0.00	29.598 
16:25	82.4	82.4	82.3	44	58.3	3	6	248	0.00	29.598 
16:30	81.4	81.4	81.2	42	56.1	3	7	270	0.00	29.602 
16:35	80.7	80.7	80.7	43	56.1	3	6	248	0.00	29.602 
16:40	79.9	79.9	80.2	44	56.0	3	7	270	0.00	29.602 
16:45	79.4	79.4	79.9	45	56.2	2	7	270	0.00	29.598 
16:50	78.8	78.8	79.6	47	56.8	2	4	248	0.00	29.598 
16:55	78.3	78.3	79.4	50	58.1	1	3	248	0.00	29.598 
17:00	77.9	77.9	79.2	51	58.3	1	4	248	0.00	29.598 
17:05	77.7	77.7	79.2	53	59.2	1	3	248	0.00	29.598 
17:10	77.2	77.2	78.9	55	59.8	1	4	248	0.00	29.598 
17:15	76.3	76.3	78.3	56	59.4	1	6	270	0.00	29.611 
17:20	75.4	75.4	77.7	56	58.6	2	4	270	0.00	29.611 
17:25	74.9	74.9	74.9	56	58.1	1	4	225	0.00	29.611 
17:30	74.6	74.6	74.6	57	58.3	0	3	248	0.00	29.611 
17:35	74.2	74.2	74.2	56	57.5	1	2	248	0.00	29.611 
17:40	74.0	74.0	74.0	56	57.3	1	2	248	0.00	29.611 
17:45	74.0	74.0	74.0	56	57.3	1	2	248	0.00	29.602 
17:50	74.0	74.0	74.0	55	56.8	1	3	248	0.00	29.602 
17:55	73.9	73.9	73.9	55	56.7	1	2	248	0.00	29.602 
18:00	73.9	73.9	73.9	56	57.2	1	3	248	0.00	29.608 
18:05	73.9	73.9	73.9	55	56.7	2	5	292	0.00	29.608 
18:10	73.9	73.9	73.9	57	57.7	2	4	270	0.00	29.608 
18:15	73.7	73.7	73.7	60	58.9	3	6	270	0.00	29.624 
18:20	72.7	72.7	72.7	62	58.9	3	6	270	0.00	29.624 
18:25	71.8	71.8	71.8	65	59.4	2	4	270	0.00	29.624 
18:30	71.3	71.3	71.3	67	59.8	2	4	270	0.00	29.628 
18:35	70.8	70.8	70.8	66	58.9	2	5	270	0.00	29.628 
18:40	70.4	70.4	70.4	68	59.3	2	4	248	0.00	29.628 
18:45	70.1	70.1	70.1	68	59.0	1	3	248	0.00	29.627 
18:50	69.9	69.9	69.9	68	58.8	1	4	248	0.00	29.627 
18:55	70.1	70.1	70.1	69	59.4	1	3	248	0.00	29.627 
19:00	69.9	69.9	69.9	68	58.8	1	4	248	0.00	29.625 
19:05	69.8	69.8	69.8	68	58.7	1	3	315	0.00	29.625 
19:10	69.8	69.8	69.8	69	59.2	0	1	315	0.00	29.625 
19:15	69.8	69.8	69.8	69	59.2	0	1	315	0.00	29.616 
19:20	69.8	69.8	69.8	69	59.2	0	0	---	0.00	29.616 
19:25	69.8	69.8	69.8	69	59.2	0	1	315	0.00	29.616 
19:30	69.8	69.8	69.8	68	58.7	0	1	315	0.00	29.627 
19:35	69.8	69.8	69.8	67	58.3	0	1	315	0.00	29.627 
19:40	69.8	69.8	69.8	66	57.9	0	2	315	0.00	29.627 
19:45	69.8	69.8	69.8	67	58.3	0	1	315	0.00	29.629 
19:50	69.8	69.8	69.8	67	58.3	0	1	315	0.00	29.629 
19:55	69.8	69.8	69.8	67	58.3	0	1	315	0.00	29.629 
20:00	69.6	69.6	69.6	68	58.6	0	0	---	0.00	29.640 
20:05	69.6	69.6	69.6	68	58.6	0	1	315	0.00	29.640 
20:10	69.6	69.6	69.6	69	59.0	0	1	315	0.00	29.640 
20:15	69.4	69.4	69.4	69	58.8	0	1	315	0.00	29.643 
20:20	69.3	69.3	69.3	70	59.1	0	1	315	0.00	29.643 
20:25	69.1	69.1	69.1	70	58.9	0	1	315	0.00	29.643 
20:30	68.9	68.9	68.9	71	59.1	0	3	315	0.00	29.650 
20:35	68.8	68.8	68.8	72	59.4	0	1	315	0.00	29.650 
20:40	68.4	68.4	68.4	73	59.4	0	3	315	0.00	29.650 
20:45	68.3	68.3	68.3	73	59.3	0	1	315	0.00	29.659 
20:50	68.1	68.1	68.1	75	59.9	0	1	315	0.00	29.659 
20:55	67.8	67.8	67.8	76	59.9	0	1	315	0.00	29.659 
21:00	67.6	67.6	67.6	77	60.1	0	0	---	0.00	29.660 
21:05	67.3	67.3	67.3	78	60.2	0	0	---	0.00	29.660 
21:10	67.1	67.1	67.1	79	60.4	0	0	---	0.00	29.660 
21:15	66.8	66.8	66.8	79	60.1	0	1	315	0.00	29.651 
21:20	66.6	66.6	66.6	79	59.9	0	1	315	0.00	29.651 
21:25	66.4	66.4	66.4	79	59.7	0	2	338	0.00	29.651 
21:30	66.3	66.3	66.3	79	59.6	0	0	---	0.00	29.657 
21:35	66.3	66.3	66.3	80	59.9	0	0	---	0.00	29.657 
21:40	66.3	66.3	66.3	80	59.9	0	0	---	0.00	29.657 
21:45	66.3	66.3	66.3	80	59.9	0	0	---	0.00	29.666 
21:50	66.3	66.3	66.3	80	59.9	0	0	---	0.00	29.666 
21:55	66.1	66.1	66.1	80	59.7	0	0	---	0.00	29.666 
22:00	66.0	66.0	66.0	81	60.0	0	0	---	0.00	29.660 
22:05	66.0	66.0	66.0	81	60.0	0	0	---	0.00	29.660 
22:10	66.0	66.0	66.0	81	60.0	0	0	---	0.00	29.660 
22:15	66.0	66.0	66.0	81	60.0	0	0	---	0.00	29.656 
22:20	65.8	65.8	65.8	81	59.8	0	1	338	0.00	29.656 
22:25	65.8	65.8	65.8	81	59.8	0	0	---	0.00	29.656 
22:30	65.6	65.6	65.6	81	59.6	0	0	---	0.00	29.658 
22:35	65.6	65.6	65.6	81	59.6	0	0	---	0.00	29.658 
22:40	65.6	65.6	65.6	82	59.9	0	0	---	0.00	29.658 
22:45	65.6	65.6	65.6	82	59.9	0	0	---	0.00	29.661 
22:50	65.6	65.6	65.6	82	59.9	0	0	---	0.00	29.661 
22:55	65.6	65.6	65.6	83	60.3	0	0	---	0.00	29.661 
23:00	65.5	65.5	65.5	83	60.2	0	0	---	0.00	29.660 
23:05	65.5	65.5	65.5	83	60.2	0	0	---	0.00	29.660 
23:10	65.5	65.5	65.5	84	60.5	0	0	---	0.00	29.660 
23:15	65.3	65.3	65.3	84	60.3	0	0	---	0.00	29.650 
23:20	65.2	65.2	65.2	84	60.2	0	0	---	0.00	29.650 
23:25	65.0	65.0	65.0	85	60.4	0	0	---	0.00	29.650 
23:30	64.8	64.8	64.8	85	60.2	0	0	---	0.00	29.631 
23:35	64.8	64.8	64.8	86	60.5	0	0	---	0.00	29.631 
23:40	64.7	64.7	64.7	86	60.4	0	0	---	0.00	29.631 
23:45	64.7	64.7	64.7	86	60.4	0	0	---	0.00	29.624 
23:50	64.5	64.5	64.5	86	60.2	0	0	---	0.00	29.624 
23:55	64.5	64.5	64.5	86	60.2	0	0	---	0.00	29.624 

CoCoRaHS
IN-AL-39
A2 Web Hosting
Creative Commons License
GoDaddy
search engine by freefind advanced

loaded 2018-11-15 18:28:12 • last modified 2010-11-18 10:43:29
Privacy PolicyDisclaimer
• wx.awcolley.com is powered by PmWiki v.2002016 •
• all content (unless otherwise noted) © 2018 A W Colley